createdAt,value
2022-07-27T00:00:26.936Z,1.60
2022-07-27T00:01:26.958Z,1.50
2022-07-27T00:02:26.851Z,1.70
2022-07-27T00:03:26.872Z,1.70
2022-07-27T00:04:26.864Z,1.60
2022-07-27T00:05:26.798Z,2.00
2022-07-27T00:06:26.810Z,1.70
2022-07-27T00:07:26.776Z,1.40
2022-07-27T00:08:26.899Z,1.50
2022-07-27T00:09:26.773Z,1.70
2022-07-27T00:10:26.788Z,1.50
2022-07-27T00:11:26.721Z,1.40
2022-07-27T00:12:26.709Z,1.70
2022-07-27T00:13:26.710Z,1.50
2022-07-27T00:14:26.704Z,1.50
2022-07-27T00:15:26.679Z,1.90
2022-07-27T00:16:26.749Z,1.60
2022-07-27T00:17:26.650Z,1.50
2022-07-27T00:18:26.657Z,1.60
2022-07-27T00:19:26.641Z,1.70
2022-07-27T00:20:27.159Z,1.50
2022-07-27T00:21:26.596Z,1.80
2022-07-27T00:22:26.580Z,1.80
2022-07-27T00:23:26.584Z,1.50
2022-07-27T00:24:26.565Z,1.50
2022-07-27T00:25:26.600Z,1.40
2022-07-27T00:26:26.529Z,1.90
2022-07-27T00:27:26.525Z,1.40
2022-07-27T00:28:26.500Z,1.60
2022-07-27T00:29:26.503Z,1.80
2022-07-27T00:30:26.586Z,1.60
2022-07-27T00:31:26.500Z,1.60
2022-07-27T00:32:26.455Z,1.50
2022-07-27T00:33:26.445Z,1.60
2022-07-27T00:34:26.434Z,1.90
2022-07-27T00:35:26.439Z,1.50
2022-07-27T00:36:26.442Z,1.50
2022-07-27T00:37:26.387Z,1.50
2022-07-27T00:38:26.362Z,1.70
2022-07-27T00:39:26.349Z,2.20
2022-07-27T00:40:26.353Z,1.90
2022-07-27T00:41:26.343Z,1.60
2022-07-27T00:42:26.319Z,1.60
2022-07-27T00:43:26.320Z,1.50
2022-07-27T00:44:26.294Z,2.00
2022-07-27T00:45:26.310Z,1.60
2022-07-27T00:46:26.338Z,1.80
2022-07-27T00:47:26.246Z,1.80
2022-07-27T00:48:26.598Z,2.00
2022-07-27T00:49:26.323Z,1.50
2022-07-27T00:50:26.220Z,1.70
2022-07-27T00:51:26.200Z,1.40
2022-07-27T00:52:26.189Z,1.80
2022-07-27T00:53:26.220Z,1.60
2022-07-27T00:54:26.176Z,1.90
2022-07-27T00:55:26.138Z,1.60
2022-07-27T00:56:26.139Z,1.70
2022-07-27T00:57:26.150Z,1.90
2022-07-27T00:58:26.131Z,1.90
2022-07-27T00:59:26.098Z,1.80
2022-07-27T01:00:26.356Z,2.00
2022-07-27T01:01:26.094Z,1.50
2022-07-27T01:02:26.171Z,1.50
2022-07-27T01:03:29.749Z,1.70
2022-07-27T01:04:26.054Z,1.70
2022-07-27T01:05:30.236Z,1.60
2022-07-27T01:06:27.226Z,1.60
2022-07-27T01:07:26.009Z,1.40
2022-07-27T01:08:25.971Z,2.20
2022-07-27T01:09:25.988Z,1.90
2022-07-27T01:10:25.975Z,1.60
2022-07-27T01:11:25.949Z,1.70
2022-07-27T01:12:25.965Z,1.60
2022-07-27T01:13:25.928Z,1.60
2022-07-27T01:14:28.574Z,1.70
2022-07-27T01:15:25.957Z,1.70
2022-07-27T01:16:25.903Z,1.70
2022-07-27T01:17:25.874Z,1.90
2022-07-27T01:18:25.835Z,1.80
2022-07-27T01:19:25.849Z,1.70
2022-07-27T01:20:25.843Z,1.80
2022-07-27T01:21:25.804Z,1.80
2022-07-27T01:22:25.845Z,1.90
2022-07-27T01:23:25.794Z,1.50
2022-07-27T01:24:25.770Z,1.20
2022-07-27T01:25:25.739Z,1.50
2022-07-27T01:26:25.756Z,1.70
2022-07-27T01:27:25.745Z,1.50
2022-07-27T01:28:25.716Z,1.30
2022-07-27T01:29:25.713Z,1.40
2022-07-27T01:30:25.694Z,1.80
2022-07-27T01:31:25.706Z,1.60
2022-07-27T01:32:25.686Z,1.50
2022-07-27T01:33:25.664Z,1.60
2022-07-27T01:34:25.662Z,1.40
2022-07-27T01:35:25.626Z,1.40
2022-07-27T01:36:25.663Z,1.60
2022-07-27T01:37:25.600Z,1.40
2022-07-27T01:38:25.600Z,1.60
2022-07-27T01:39:25.585Z,1.40
2022-07-27T01:40:25.583Z,1.50
2022-07-27T01:41:25.573Z,1.60
2022-07-27T01:42:25.566Z,1.40
2022-07-27T01:43:25.506Z,1.90
2022-07-27T01:44:25.529Z,1.40
2022-07-27T01:45:25.493Z,1.60
2022-07-27T01:46:25.542Z,1.40
2022-07-27T01:47:25.465Z,1.90
2022-07-27T01:48:25.454Z,1.50
2022-07-27T01:49:25.507Z,1.50
2022-07-27T01:50:25.440Z,1.40
2022-07-27T01:51:25.449Z,1.50
2022-07-27T01:52:25.401Z,1.50
2022-07-27T01:53:25.409Z,1.70
2022-07-27T01:54:25.954Z,1.50
2022-07-27T01:55:25.371Z,1.80
2022-07-27T01:56:25.379Z,1.60
2022-07-27T01:57:25.410Z,1.50
2022-07-27T01:58:25.358Z,1.50
2022-07-27T01:59:25.323Z,1.60
2022-07-27T02:00:25.320Z,1.40
2022-07-27T02:01:25.334Z,1.60
2022-07-27T02:02:25.266Z,1.60
2022-07-27T02:03:25.294Z,1.60
2022-07-27T02:04:25.286Z,1.50
2022-07-27T02:05:25.307Z,1.30
2022-07-27T02:06:25.265Z,1.60
2022-07-27T02:07:25.224Z,1.60
2022-07-27T02:08:25.196Z,1.60
2022-07-27T02:09:25.197Z,1.50
2022-07-27T02:10:25.164Z,1.60
2022-07-27T02:11:25.167Z,1.40
2022-07-27T02:12:25.159Z,2.20
2022-07-27T02:13:25.129Z,1.70
2022-07-27T02:14:25.128Z,1.40
2022-07-27T02:15:25.260Z,1.90
2022-07-27T02:16:25.187Z,1.40
2022-07-27T02:17:25.103Z,1.60
2022-07-27T02:18:33.130Z,1.90
2022-07-27T02:19:25.061Z,1.50
2022-07-27T02:20:25.042Z,1.60
2022-07-27T02:21:25.063Z,1.60
2022-07-27T02:22:24.999Z,1.50
2022-07-27T02:23:24.981Z,1.60
2022-07-27T02:24:24.996Z,1.60
2022-07-27T02:25:24.982Z,1.60
2022-07-27T02:26:24.993Z,1.50
2022-07-27T02:27:24.943Z,1.50
2022-07-27T02:28:24.942Z,1.30
2022-07-27T02:29:24.914Z,1.80
2022-07-27T02:30:24.982Z,1.50
2022-07-27T02:31:24.933Z,1.60
2022-07-27T02:32:24.957Z,1.50
2022-07-27T02:33:24.911Z,1.60
2022-07-27T02:34:24.868Z,1.50
2022-07-27T02:35:24.852Z,1.50
2022-07-27T02:36:24.829Z,1.40
2022-07-27T02:37:24.854Z,1.40
2022-07-27T02:38:24.798Z,2.40
2022-07-27T02:39:24.837Z,1.70
2022-07-27T02:40:24.789Z,1.40
2022-07-27T02:41:24.756Z,1.60
2022-07-27T02:42:24.778Z,1.50
2022-07-27T02:43:24.753Z,2.00
2022-07-27T02:44:24.769Z,1.50
2022-07-27T02:45:24.700Z,1.80
2022-07-27T02:46:24.777Z,1.90
2022-07-27T02:47:24.670Z,1.90
2022-07-27T02:48:24.700Z,1.70
2022-07-27T02:49:24.705Z,1.70
2022-07-27T02:50:24.635Z,2.00
2022-07-27T02:51:24.634Z,1.60
2022-07-27T02:52:24.670Z,1.70
2022-07-27T02:53:24.627Z,1.90
2022-07-27T02:54:24.605Z,1.90
2022-07-27T02:55:24.574Z,1.70
2022-07-27T02:56:26.961Z,1.70
2022-07-27T02:57:24.609Z,1.70
2022-07-27T02:58:24.551Z,1.60
2022-07-27T02:59:24.547Z,1.80
2022-07-27T03:00:24.504Z,1.50
2022-07-27T03:01:24.603Z,1.60
2022-07-27T03:02:24.532Z,1.50
2022-07-27T03:03:24.512Z,1.60
2022-07-27T03:04:24.500Z,1.60
2022-07-27T03:05:24.478Z,1.50
2022-07-27T03:06:24.498Z,1.50
2022-07-27T03:07:24.457Z,1.90
2022-07-27T03:08:24.460Z,1.60
2022-07-27T03:09:32.853Z,1.60
2022-07-27T03:10:24.384Z,1.50
2022-07-27T03:11:24.359Z,1.70
2022-07-27T03:12:24.375Z,2.20
2022-07-27T03:13:24.370Z,1.70
2022-07-27T03:14:24.343Z,1.80
2022-07-27T03:15:24.413Z,1.90
2022-07-27T03:16:24.417Z,1.70
2022-07-27T03:17:24.279Z,1.80
2022-07-27T03:18:24.303Z,1.60
2022-07-27T03:19:29.754Z,1.70
2022-07-27T03:20:24.254Z,1.90
2022-07-27T03:21:24.246Z,1.60
2022-07-27T03:22:24.276Z,1.40
2022-07-27T03:23:24.228Z,1.50
2022-07-27T03:24:24.223Z,1.50
2022-07-27T03:25:24.238Z,1.60
2022-07-27T03:26:24.258Z,1.80
2022-07-27T03:27:24.167Z,1.70
2022-07-27T03:28:24.225Z,1.60
2022-07-27T03:29:24.127Z,1.50
2022-07-27T03:30:24.161Z,1.60
2022-07-27T03:31:24.157Z,1.60
2022-07-27T03:32:24.080Z,1.90
2022-07-27T03:33:24.087Z,1.80
2022-07-27T03:34:24.069Z,1.60
2022-07-27T03:35:24.094Z,1.60
2022-07-27T03:36:24.065Z,1.50
2022-07-27T03:37:24.024Z,1.60
2022-07-27T03:38:24.038Z,1.60
2022-07-27T03:39:23.998Z,1.60
2022-07-27T03:40:24.060Z,1.70
2022-07-27T03:41:23.968Z,1.70
2022-07-27T03:42:23.958Z,1.60
2022-07-27T03:43:23.945Z,1.40
2022-07-27T03:44:23.971Z,1.30
2022-07-27T03:45:24.488Z,1.30
2022-07-27T03:46:23.978Z,1.30
2022-07-27T03:47:23.906Z,1.80
2022-07-27T03:48:23.879Z,1.90
2022-07-27T03:49:24.009Z,1.90
2022-07-27T03:50:23.900Z,1.70
2022-07-27T03:51:23.854Z,1.70
2022-07-27T03:52:23.841Z,1.70
2022-07-27T03:53:23.840Z,1.50
2022-07-27T03:54:23.882Z,1.70
2022-07-27T03:55:23.818Z,1.70
2022-07-27T03:56:23.776Z,1.60
2022-07-27T03:57:23.760Z,1.40
2022-07-27T03:58:23.789Z,1.60
2022-07-27T03:59:23.757Z,1.30
2022-07-27T04:00:23.722Z,1.40
2022-07-27T04:01:23.766Z,1.30
2022-07-27T04:02:23.746Z,1.20
2022-07-27T04:03:23.701Z,1.30
2022-07-27T04:04:23.665Z,1.30
2022-07-27T04:05:23.683Z,1.30
2022-07-27T04:06:23.679Z,1.80
2022-07-27T04:07:23.673Z,1.60
2022-07-27T04:08:23.599Z,1.30
2022-07-27T04:09:23.630Z,1.40
2022-07-27T04:10:23.609Z,1.60
2022-07-27T04:11:23.702Z,1.30
2022-07-27T04:12:23.573Z,1.30
2022-07-27T04:13:23.545Z,1.10
2022-07-27T04:14:23.563Z,1.30
2022-07-27T04:15:23.565Z,1.50
2022-07-27T04:16:23.608Z,1.20
2022-07-27T04:17:54.550Z,1.40
2022-07-27T04:18:23.515Z,1.70
2022-07-27T04:19:23.482Z,1.60
2022-07-27T04:20:23.497Z,1.30
2022-07-27T04:21:23.467Z,1.10
2022-07-27T04:22:23.430Z,1.40
2022-07-27T04:23:23.463Z,1.30
2022-07-27T04:24:23.415Z,1.40
2022-07-27T04:25:23.445Z,1.40
2022-07-27T04:26:23.389Z,1.80
2022-07-27T04:27:23.387Z,1.40
2022-07-27T04:28:23.407Z,1.30
2022-07-27T04:29:23.769Z,1.50
2022-07-27T04:30:23.524Z,1.30
2022-07-27T04:31:23.442Z,1.40
2022-07-27T04:32:23.337Z,1.50
2022-07-27T04:33:23.331Z,1.40
2022-07-27T04:34:23.292Z,1.40
2022-07-27T04:35:26.493Z,1.50
2022-07-27T04:36:23.289Z,1.40
2022-07-27T04:37:23.250Z,1.20
2022-07-27T04:38:23.250Z,1.30
2022-07-27T04:39:23.286Z,1.30
2022-07-27T04:40:23.257Z,1.30
2022-07-27T04:41:23.223Z,1.70
2022-07-27T04:42:23.191Z,1.20
2022-07-27T04:43:23.165Z,1.30
2022-07-27T04:44:23.159Z,1.30
2022-07-27T04:45:23.213Z,1.40
2022-07-27T04:46:23.294Z,1.20
2022-07-27T04:47:23.145Z,1.20
2022-07-27T04:48:23.401Z,1.50
2022-07-27T04:49:23.189Z,1.30
2022-07-27T04:50:23.062Z,1.30
2022-07-27T04:51:23.088Z,1.20
2022-07-27T04:52:26.325Z,1.10
2022-07-27T04:53:23.086Z,1.40
2022-07-27T04:54:23.042Z,1.20
2022-07-27T04:55:23.041Z,1.40
2022-07-27T04:56:23.045Z,1.30
2022-07-27T04:57:22.986Z,1.10
2022-07-27T04:58:22.941Z,1.20
2022-07-27T04:59:22.976Z,1.40
2022-07-27T05:00:22.992Z,1.20
2022-07-27T05:01:23.220Z,1.10
2022-07-27T05:02:22.912Z,1.40
2022-07-27T05:03:22.924Z,1.10
2022-07-27T05:04:22.971Z,1.00
2022-07-27T05:05:22.902Z,1.30
2022-07-27T05:06:22.918Z,1.00
2022-07-27T05:07:22.844Z,1.10
2022-07-27T05:08:22.858Z,1.10
2022-07-27T05:09:22.815Z,1.30
2022-07-27T05:10:23.940Z,1.20
2022-07-27T05:11:22.858Z,1.00
2022-07-27T05:12:22.839Z,1.20
2022-07-27T05:13:22.803Z,1.20
2022-07-27T05:14:22.766Z,0.90
2022-07-27T05:15:22.762Z,1.10
2022-07-27T05:16:26.566Z,1.10
2022-07-27T05:17:22.807Z,1.30
2022-07-27T05:18:22.737Z,1.20
2022-07-27T05:19:22.703Z,1.30
2022-07-27T05:20:22.707Z,1.00
2022-07-27T05:21:22.649Z,1.10
2022-07-27T05:22:22.640Z,1.00
2022-07-27T05:23:22.690Z,1.10
2022-07-27T05:24:22.641Z,0.90
2022-07-27T05:25:22.606Z,1.20
2022-07-27T05:26:22.612Z,1.20
2022-07-27T05:27:22.622Z,1.40
2022-07-27T05:28:22.573Z,1.40
2022-07-27T05:29:22.582Z,1.40
2022-07-27T05:30:22.553Z,1.20
2022-07-27T05:31:22.649Z,1.40
2022-07-27T05:32:22.537Z,1.10
2022-07-27T05:33:22.545Z,1.10
2022-07-27T05:34:22.524Z,1.40
2022-07-27T05:35:22.504Z,1.50
2022-07-27T05:36:22.454Z,1.10
2022-07-27T05:37:22.461Z,1.30
2022-07-27T05:38:22.458Z,1.30
2022-07-27T05:39:22.729Z,1.10
2022-07-27T05:40:22.448Z,1.20
2022-07-27T05:41:22.419Z,1.00
2022-07-27T05:42:22.386Z,1.20
2022-07-27T05:43:22.396Z,1.00
2022-07-27T05:44:22.404Z,1.20
2022-07-27T05:45:22.433Z,1.10
2022-07-27T05:46:22.512Z,1.10
2022-07-27T05:47:22.355Z,1.10
2022-07-27T05:48:22.315Z,1.10
2022-07-27T05:49:22.439Z,1.20
2022-07-27T05:50:22.339Z,1.30
2022-07-27T05:51:22.277Z,1.10
2022-07-27T05:52:22.266Z,1.40
2022-07-27T05:53:22.283Z,1.10
2022-07-27T05:54:22.246Z,1.10
2022-07-27T05:55:22.233Z,1.10
2022-07-27T05:56:22.186Z,1.30
2022-07-27T05:57:22.201Z,1.30
2022-07-27T05:58:23.219Z,1.50
2022-07-27T05:59:22.196Z,1.50
2022-07-27T06:00:22.218Z,1.30
2022-07-27T06:01:22.197Z,1.00
2022-07-27T06:02:22.136Z,1.00
2022-07-27T06:03:22.166Z,1.00
2022-07-27T06:04:22.159Z,1.20
2022-07-27T06:05:22.198Z,1.30
2022-07-27T06:06:22.090Z,1.10
2022-07-27T06:07:22.059Z,1.10
2022-07-27T06:08:22.039Z,1.10
2022-07-27T06:09:22.062Z,1.30
2022-07-27T06:10:22.064Z,1.10
2022-07-27T06:11:22.032Z,1.20
2022-07-27T06:12:22.004Z,1.10
2022-07-27T06:13:25.433Z,1.00
2022-07-27T06:14:22.010Z,1.20
2022-07-27T06:15:21.977Z,1.20
2022-07-27T06:16:22.018Z,1.20
2022-07-27T06:17:22.162Z,1.30
2022-07-27T06:18:21.941Z,1.50
2022-07-27T06:19:21.908Z,1.10
2022-07-27T06:20:21.902Z,1.00
2022-07-27T06:21:21.909Z,1.10
2022-07-27T06:22:21.883Z,1.00
2022-07-27T06:23:21.846Z,1.20
2022-07-27T06:24:21.914Z,1.30
2022-07-27T06:25:21.831Z,1.20
2022-07-27T06:26:21.824Z,1.40
2022-07-27T06:27:21.821Z,1.00
2022-07-27T06:28:21.788Z,1.10
2022-07-27T06:29:21.820Z,1.00
2022-07-27T06:30:21.793Z,0.90
2022-07-27T06:31:21.797Z,0.90
2022-07-27T06:32:21.763Z,1.00
2022-07-27T06:33:21.764Z,1.00
2022-07-27T06:34:21.736Z,0.90
2022-07-27T06:35:21.767Z,1.10
2022-07-27T06:36:21.687Z,0.90
2022-07-27T06:37:21.674Z,1.00
2022-07-27T06:38:21.667Z,1.60
2022-07-27T06:39:21.660Z,1.10
2022-07-27T06:40:21.625Z,0.90
2022-07-27T06:41:21.668Z,0.90
2022-07-27T06:42:21.597Z,0.90
2022-07-27T06:43:21.599Z,0.80
2022-07-27T06:44:21.576Z,1.00
2022-07-27T06:45:21.555Z,0.80
2022-07-27T06:46:21.612Z,1.10
2022-07-27T06:47:24.812Z,1.10
2022-07-27T06:48:21.538Z,1.00
2022-07-27T06:49:21.590Z,1.00
2022-07-27T06:50:21.530Z,1.10
2022-07-27T06:51:21.498Z,1.20
2022-07-27T06:52:21.469Z,1.00
2022-07-27T06:53:21.863Z,1.20
2022-07-27T06:54:21.449Z,1.00
2022-07-27T06:55:21.431Z,1.00
2022-07-27T06:56:21.447Z,0.90
2022-07-27T06:57:21.420Z,1.00
2022-07-27T06:58:21.384Z,1.10
2022-07-27T06:59:21.397Z,1.10
2022-07-27T07:00:21.394Z,1.00
2022-07-27T07:01:21.554Z,0.90
2022-07-27T07:02:21.356Z,0.90
2022-07-27T07:03:21.398Z,0.70
2022-07-27T07:04:24.708Z,1.10
2022-07-27T07:05:21.351Z,1.20
2022-07-27T07:06:21.322Z,1.00
2022-07-27T07:07:21.271Z,1.00
2022-07-27T07:08:21.279Z,1.10
2022-07-27T07:09:21.265Z,1.20
2022-07-27T07:10:21.657Z,1.30
2022-07-27T07:11:21.257Z,1.20
2022-07-27T07:12:21.239Z,0.90
2022-07-27T07:13:21.226Z,1.10
2022-07-27T07:14:21.184Z,0.90
2022-07-27T07:15:21.174Z,1.10
2022-07-27T07:16:21.239Z,1.10
2022-07-27T07:17:21.162Z,1.20
2022-07-27T07:18:21.133Z,0.90
2022-07-27T07:19:21.154Z,0.80
2022-07-27T07:20:21.101Z,1.00
2022-07-27T07:21:21.145Z,1.10
2022-07-27T07:22:21.102Z,0.90
2022-07-27T07:23:21.110Z,1.00
2022-07-27T07:24:21.101Z,1.00
2022-07-27T07:25:21.037Z,1.10
2022-07-27T07:26:21.277Z,0.90
2022-07-27T07:27:21.098Z,0.80
2022-07-27T07:28:21.067Z,1.20
2022-07-27T07:29:21.036Z,1.10
2022-07-27T07:30:21.005Z,1.00
2022-07-27T07:31:21.003Z,0.80
2022-07-27T07:32:20.973Z,1.00
2022-07-27T07:33:20.954Z,0.80
2022-07-27T07:34:20.925Z,1.10
2022-07-27T07:35:20.951Z,0.90
2022-07-27T07:36:20.902Z,0.80
2022-07-27T07:37:20.896Z,0.90
2022-07-27T07:38:20.865Z,0.90
2022-07-27T07:39:20.856Z,1.10
2022-07-27T07:41:20.854Z,1.00
2022-07-27T07:42:20.836Z,1.50
2022-07-27T07:43:20.814Z,0.80
2022-07-27T07:44:20.828Z,1.00
2022-07-27T07:45:20.801Z,0.90
2022-07-27T07:46:20.827Z,1.30
2022-07-27T07:47:20.818Z,1.20
2022-07-27T07:48:20.775Z,1.10
2022-07-27T07:49:21.717Z,1.20
2022-07-27T07:50:20.720Z,1.40
2022-07-27T07:51:20.677Z,0.90
2022-07-27T07:52:20.693Z,1.10
2022-07-27T07:53:20.697Z,0.90
2022-07-27T07:54:20.702Z,0.90
2022-07-27T07:55:20.653Z,1.10
2022-07-27T07:56:20.677Z,1.00
2022-07-27T07:57:20.634Z,1.10
2022-07-27T07:58:20.604Z,1.00
2022-07-27T07:59:20.595Z,1.00
2022-07-27T08:00:20.603Z,1.10
2022-07-27T08:01:20.629Z,1.00
2022-07-27T08:02:20.577Z,1.10
2022-07-27T08:03:20.609Z,1.10
2022-07-27T08:04:20.559Z,0.80
2022-07-27T08:05:20.527Z,1.00
2022-07-27T08:06:20.574Z,1.10
2022-07-27T08:07:20.531Z,1.00
2022-07-27T08:08:20.549Z,1.30
2022-07-27T08:09:20.478Z,1.10
2022-07-27T08:10:20.564Z,1.10
2022-07-27T08:11:20.485Z,1.00
2022-07-27T08:12:20.425Z,1.20
2022-07-27T08:13:22.508Z,1.00
2022-07-27T08:14:20.410Z,1.10
2022-07-27T08:15:20.377Z,1.10
2022-07-27T08:16:20.479Z,1.00
2022-07-27T08:17:20.353Z,1.10
2022-07-27T08:18:20.379Z,0.80
2022-07-27T08:19:20.339Z,1.20
2022-07-27T08:20:20.407Z,1.00
2022-07-27T08:21:20.330Z,1.10
2022-07-27T08:22:20.303Z,1.00
2022-07-27T08:23:20.332Z,1.00
2022-07-27T08:24:20.283Z,1.00
2022-07-27T08:25:20.255Z,1.10
2022-07-27T08:26:20.238Z,1.10
2022-07-27T08:27:20.260Z,0.90
2022-07-27T08:28:20.222Z,0.90
2022-07-27T08:29:23.050Z,0.90
2022-07-27T08:30:20.289Z,1.40
2022-07-27T08:31:24.574Z,1.00
2022-07-27T08:32:20.231Z,0.90
2022-07-27T08:33:20.214Z,0.90
2022-07-27T08:34:20.267Z,1.10
2022-07-27T08:35:20.127Z,1.30
2022-07-27T08:36:20.116Z,0.90
2022-07-27T08:37:20.125Z,0.90
2022-07-27T08:38:20.091Z,1.00
2022-07-27T08:40:05.766Z,0.80
2022-07-27T08:40:42.759Z,0.80
2022-07-27T08:41:20.068Z,0.90
2022-07-27T08:42:20.034Z,1.10
2022-07-27T08:43:24.889Z,0.90
2022-07-27T08:44:20.033Z,0.80
2022-07-27T08:45:20.013Z,0.90
2022-07-27T08:46:20.103Z,0.90
2022-07-27T08:47:19.993Z,0.90
2022-07-27T08:48:19.955Z,1.20
2022-07-27T08:49:20.107Z,0.90
2022-07-27T08:50:19.908Z,0.90
2022-07-27T08:51:19.961Z,1.10
2022-07-27T08:52:19.898Z,1.10
2022-07-27T08:53:19.901Z,0.90
2022-07-27T08:54:19.914Z,0.80
2022-07-27T08:55:19.884Z,1.10
2022-07-27T08:56:19.903Z,1.00
2022-07-27T08:57:19.897Z,1.10
2022-07-27T08:58:19.837Z,1.00
2022-07-27T08:59:19.794Z,1.10
2022-07-27T09:00:19.841Z,1.20
2022-07-27T09:01:19.952Z,1.30
2022-07-27T09:02:19.926Z,1.30
2022-07-27T09:03:21.099Z,1.40
2022-07-27T09:04:19.747Z,1.00
2022-07-27T09:05:19.797Z,1.00
2022-07-27T09:06:19.777Z,1.00
2022-07-27T09:07:19.700Z,1.20
2022-07-27T09:08:19.720Z,1.10
2022-07-27T09:09:19.684Z,1.20
2022-07-27T09:10:19.704Z,0.90
2022-07-27T09:11:19.666Z,1.20
2022-07-27T09:12:19.662Z,1.00
2022-07-27T09:13:19.656Z,1.10
2022-07-27T09:14:19.620Z,0.90
2022-07-27T09:15:19.621Z,1.00
2022-07-27T09:16:20.833Z,0.90
2022-07-27T09:18:19.640Z,1.00
2022-07-27T09:19:19.562Z,1.20
2022-07-27T09:20:19.784Z,1.00
2022-07-27T09:21:19.565Z,1.40
2022-07-27T09:22:19.511Z,0.90
2022-07-27T09:23:19.526Z,0.80
2022-07-27T09:25:28.441Z,1.10
2022-07-27T09:26:35.123Z,1.00
2022-07-27T09:27:19.471Z,1.10
2022-07-27T09:28:19.485Z,0.90
2022-07-27T09:29:19.392Z,1.20
2022-07-27T09:30:19.412Z,1.20
2022-07-27T09:31:19.474Z,1.10
2022-07-27T09:32:19.400Z,1.20
2022-07-27T09:33:19.404Z,1.00
2022-07-27T09:34:19.354Z,1.10
2022-07-27T09:35:19.352Z,1.20
2022-07-27T09:36:19.383Z,1.10
2022-07-27T09:37:19.379Z,1.00
2022-07-27T09:38:19.298Z,0.90
2022-07-27T09:39:19.445Z,1.40
2022-07-27T09:40:25.496Z,0.90
2022-07-27T09:41:19.292Z,1.10
2022-07-27T09:43:05.412Z,0.90
2022-07-27T09:44:12.509Z,1.20
2022-07-27T09:44:34.858Z,1.00
2022-07-27T09:45:19.215Z,1.30
2022-07-27T09:46:19.257Z,1.00
2022-07-27T09:47:19.253Z,0.90
2022-07-27T09:48:19.194Z,0.90
2022-07-27T09:49:19.221Z,0.90
2022-07-27T09:50:19.174Z,0.90
2022-07-27T09:51:58.123Z,1.50
2022-07-27T09:52:19.173Z,1.20
2022-07-27T09:53:40.866Z,1.10
2022-07-27T09:54:19.099Z,0.90
2022-07-27T09:55:19.089Z,0.90
2022-07-27T09:56:19.101Z,1.50
2022-07-27T09:57:19.100Z,1.00
2022-07-27T09:58:19.076Z,1.20
2022-07-27T09:59:19.059Z,1.10
2022-07-27T10:00:19.038Z,1.20
2022-07-27T10:01:19.182Z,1.00
2022-07-27T10:02:19.063Z,1.40
2022-07-27T10:03:18.983Z,1.10
2022-07-27T10:04:19.006Z,1.20
2022-07-27T10:05:19.069Z,1.00
2022-07-27T10:06:18.952Z,1.00
2022-07-27T10:07:18.940Z,1.30
2022-07-27T10:08:18.911Z,1.20
2022-07-27T10:09:18.917Z,1.00
2022-07-27T10:10:18.893Z,1.20
2022-07-27T10:11:18.959Z,1.40
2022-07-27T10:12:18.897Z,1.10
2022-07-27T10:13:18.906Z,1.20
2022-07-27T10:14:18.848Z,1.10
2022-07-27T10:15:18.829Z,1.00
2022-07-27T10:16:18.906Z,1.00
2022-07-27T10:17:18.868Z,1.10
2022-07-27T10:18:18.798Z,1.50
2022-07-27T10:19:18.771Z,1.10
2022-07-27T10:20:18.769Z,1.10
2022-07-27T10:21:18.773Z,1.00
2022-07-27T10:22:18.734Z,1.00
2022-07-27T10:23:18.830Z,0.90
2022-07-27T10:24:18.751Z,2.00
2022-07-27T10:25:18.704Z,1.10
2022-07-27T10:26:18.692Z,1.00
2022-07-27T10:27:18.687Z,1.10
2022-07-27T10:28:18.732Z,1.10
2022-07-27T10:29:18.641Z,1.10
2022-07-27T10:30:24.228Z,1.00
2022-07-27T10:31:19.406Z,0.80
2022-07-27T10:32:18.619Z,1.10
2022-07-27T10:33:18.609Z,1.20
2022-07-27T10:34:18.613Z,1.20
2022-07-27T10:35:18.611Z,1.20
2022-07-27T10:36:18.558Z,1.10
2022-07-27T10:37:18.536Z,1.20
2022-07-27T10:38:18.540Z,1.20
2022-07-27T10:39:18.559Z,1.10
2022-07-27T10:40:18.512Z,1.10
2022-07-27T10:41:18.526Z,1.20
2022-07-27T10:42:18.913Z,1.20
2022-07-27T10:43:18.503Z,1.10
2022-07-27T10:44:18.462Z,1.00
2022-07-27T10:45:18.457Z,1.20
2022-07-27T10:46:18.483Z,0.90
2022-07-27T10:47:18.424Z,1.60
2022-07-27T10:48:18.395Z,1.00
2022-07-27T10:49:18.463Z,1.20
2022-07-27T10:50:18.386Z,1.10
2022-07-27T10:51:18.478Z,1.20
2022-07-27T10:52:18.382Z,1.10
2022-07-27T10:53:18.350Z,1.00
2022-07-27T10:54:18.353Z,1.30
2022-07-27T10:55:18.320Z,1.60
2022-07-27T10:56:18.328Z,1.30
2022-07-27T10:57:18.326Z,1.40
2022-07-27T10:58:18.290Z,1.20
2022-07-27T10:59:18.257Z,1.50
2022-07-27T11:00:20.034Z,1.00
2022-07-27T11:01:18.471Z,1.10
2022-07-27T11:02:18.235Z,1.00
2022-07-27T11:03:18.207Z,1.00
2022-07-27T11:04:18.231Z,0.90
2022-07-27T11:05:58.521Z,1.10
2022-07-27T11:06:32.502Z,1.40
2022-07-27T11:07:24.742Z,1.30
2022-07-27T11:10:02.941Z,1.10
2022-07-27T11:10:18.106Z,1.00
2022-07-27T11:11:18.177Z,1.00
2022-07-27T11:12:18.112Z,1.00
2022-07-27T11:13:18.099Z,1.50
2022-07-27T11:14:19.377Z,0.90
2022-07-27T11:15:18.076Z,1.20
2022-07-27T11:16:25.857Z,1.20
2022-07-27T11:17:48.558Z,1.20
2022-07-27T11:18:18.057Z,1.40
2022-07-27T11:19:18.371Z,1.20
2022-07-27T11:20:17.985Z,1.30
2022-07-27T11:21:23.585Z,1.30
2022-07-27T11:22:28.619Z,1.50
2022-07-27T11:24:17.944Z,1.40
2022-07-27T11:25:18.034Z,1.50
2022-07-27T11:26:17.931Z,1.50
2022-07-27T11:27:20.006Z,1.30
2022-07-27T11:28:17.896Z,1.40
2022-07-27T11:29:17.962Z,1.30
2022-07-27T11:30:17.867Z,1.30
2022-07-27T11:31:38.220Z,1.30
2022-07-27T11:32:17.871Z,1.30
2022-07-27T11:33:17.888Z,1.30
2022-07-27T11:34:17.820Z,1.30
2022-07-27T11:35:20.028Z,1.50
2022-07-27T11:36:17.838Z,1.30
2022-07-27T11:37:17.800Z,1.00
2022-07-27T11:38:17.795Z,1.30
2022-07-27T11:39:43.680Z,1.20
2022-07-27T11:40:53.940Z,1.60
2022-07-27T11:41:28.399Z,1.50
2022-07-27T11:42:18.539Z,1.00
2022-07-27T11:43:17.737Z,1.30
2022-07-27T11:44:17.701Z,1.10
2022-07-27T11:45:17.850Z,1.50
2022-07-27T11:46:17.751Z,1.70
2022-07-27T11:47:17.703Z,1.20
2022-07-27T11:48:17.649Z,1.20
2022-07-27T11:49:17.949Z,1.30
2022-07-27T11:50:17.592Z,1.10
2022-07-27T11:51:17.675Z,1.30
2022-07-27T11:52:17.783Z,1.50
2022-07-27T11:53:17.610Z,1.20
2022-07-27T11:54:17.580Z,1.10
2022-07-27T11:55:17.548Z,1.20
2022-07-27T11:56:17.533Z,1.40
2022-07-27T11:57:17.582Z,1.10
2022-07-27T11:58:17.524Z,1.70
2022-07-27T11:59:17.854Z,1.20
2022-07-27T12:00:17.501Z,1.60
2022-07-27T12:01:17.471Z,1.30
2022-07-27T12:02:17.567Z,1.40
2022-07-27T12:03:17.464Z,1.40
2022-07-27T12:04:17.555Z,1.20
2022-07-27T12:05:17.477Z,1.30
2022-07-27T12:06:17.431Z,1.30
2022-07-27T12:07:17.450Z,1.40
2022-07-27T12:08:17.418Z,1.50
2022-07-27T12:09:17.391Z,1.60
2022-07-27T12:10:17.358Z,1.20
2022-07-27T12:11:17.333Z,1.50
2022-07-27T12:12:17.345Z,1.30
2022-07-27T12:13:17.352Z,1.10
2022-07-27T12:14:17.334Z,1.20
2022-07-27T12:16:18.538Z,1.40
2022-07-27T12:17:17.362Z,1.40
2022-07-27T12:18:17.250Z,1.00
2022-07-27T12:19:17.275Z,1.60
2022-07-27T12:20:17.249Z,1.20
2022-07-27T12:21:17.215Z,1.90
2022-07-27T12:22:17.183Z,1.50
2022-07-27T12:23:17.244Z,1.20
2022-07-27T12:24:17.200Z,1.30
2022-07-27T12:25:17.633Z,1.20
2022-07-27T12:26:17.175Z,1.20
2022-07-27T12:27:17.117Z,1.80
2022-07-27T12:28:17.175Z,1.70
2022-07-27T12:29:17.546Z,1.20
2022-07-27T12:30:17.114Z,1.10
2022-07-27T12:31:17.197Z,1.20
2022-07-27T12:32:17.051Z,1.30
2022-07-27T12:33:17.119Z,1.40
2022-07-27T12:34:17.078Z,1.40
2022-07-27T12:35:17.053Z,1.20
2022-07-27T12:36:17.042Z,1.30
2022-07-27T12:37:17.002Z,1.20
2022-07-27T12:38:17.010Z,1.10
2022-07-27T12:39:17.038Z,1.40
2022-07-27T12:40:16.987Z,1.40
2022-07-27T12:41:16.951Z,1.20
2022-07-27T12:42:16.930Z,1.40
2022-07-27T12:43:16.950Z,1.20
2022-07-27T12:44:17.004Z,1.20
2022-07-27T12:45:16.933Z,1.20
2022-07-27T12:46:16.954Z,1.30
2022-07-27T12:47:16.867Z,1.20
2022-07-27T12:48:16.931Z,1.30
2022-07-27T12:49:17.408Z,1.60
2022-07-27T12:50:16.898Z,1.10
2022-07-27T12:51:16.842Z,1.20
2022-07-27T12:52:16.815Z,1.40
2022-07-27T12:53:16.814Z,1.40
2022-07-27T12:54:16.848Z,1.30
2022-07-27T12:55:16.812Z,1.50
2022-07-27T12:56:27.017Z,1.40
2022-07-27T12:57:33.660Z,1.30
2022-07-27T12:58:16.811Z,1.50
2022-07-27T12:59:16.766Z,1.20
2022-07-27T13:00:16.738Z,1.40
2022-07-27T13:01:16.779Z,1.40
2022-07-27T13:02:16.770Z,1.80
2022-07-27T13:03:16.671Z,1.20
2022-07-27T13:04:16.719Z,1.20
2022-07-27T13:05:16.691Z,1.30
2022-07-27T13:06:16.752Z,1.30
2022-07-27T13:07:16.615Z,1.50
2022-07-27T13:08:17.082Z,1.60
2022-07-27T13:09:16.877Z,1.30
2022-07-27T13:10:16.620Z,1.30
2022-07-27T13:11:16.997Z,1.80
2022-07-27T13:12:16.559Z,1.20
2022-07-27T13:13:16.631Z,1.50
2022-07-27T13:14:16.586Z,1.50
2022-07-27T13:15:16.895Z,1.60
2022-07-27T13:16:16.628Z,1.40
2022-07-27T13:17:16.505Z,1.40
2022-07-27T13:18:21.268Z,1.30
2022-07-27T13:19:16.799Z,1.20
2022-07-27T13:20:16.496Z,1.30
2022-07-27T13:21:16.468Z,1.20
2022-07-27T13:22:16.431Z,1.20
2022-07-27T13:23:16.484Z,1.40
2022-07-27T13:24:16.437Z,1.30